Terminal Aerodrome Forecast
Issued by NWS

Home | Current Version | Previous Version | Text Only | Print | Product List | Glossary On
Versions: 1 2 3 4 5 6 7 8 9 10 11 12 13 14 15 16 17 18 19
000
FTUS44 KLZK 011700 RRA
TAFPBF
TAF
KPBF 011744Z 0118/0218 01004KT 4SM -RA BR OVC007
     FM020000 02009G16KT 5SM -RA BR OVC005
     FM021400 05012G20KT P6SM -RA OVC007=

USA.gov is the U.S. government's official web portal to all federal, state and local government web resources and services.